Forseti — V2PV4 — position and weather

sailwx.info

Track history (hours):
 
Tides and Currents Weather Stations Pressure Air Temp Water Temp Dewpoint Dewpoint Depression Visibility Wind Speed Wind Dir Waves Ship Positions

Forseti

Last reported at 2017-Jun-26 21:43 UTC. Time now 2017-Jun-27 06:54 UTC.
Position N 56°05' E 016°51'.

Length 85 m; draft 5.5 m.

Type: Cargo ship. MMSI: 304010297.

Date/timePositionNaut miles runAvg speedWind from/ knotsBaromVisibWave heightAir tempDewpointWater temp
2017-Jun-26 21:43N 56°05' E 016°51'210.1
2017-Jun-26 21:30N 56°04' E 016°49'5 9.9
2017-Jun-26 20:58N 56°01' E 016°41'5 9.9
2017-Jun-26 20:30N 55°60' E 016°33'510.0
2017-Jun-26 20:00N 55°58' E 016°24'510.0
2017-Jun-26 19:30N 55°57' E 016°16'510.0
2017-Jun-26 19:00N 55°55' E 016°07'510.2
2017-Jun-26 18:30N 55°55' E 015°58'510.0
2017-Jun-26 18:00N 55°55' E 015°49'5 9.8
2017-Jun-26 17:30N 55°55' E 015°41'510.0
2017-Jun-26 17:00N 55°57' E 015°32'5 9.8
2017-Jun-26 16:30N 55°59' E 015°24'510.0
2017-Jun-26 16:00N 56°01' E 015°16'5 9.9
2017-Jun-26 15:30N 56°02' E 015°08'510.0
2017-Jun-26 15:00N 56°04' E 014°59'510.1
2017-Jun-26 14:30N 56°06' E 014°51'5 5.0
2017-Jun-26 13:29N 56°09' E 014°44'0 0.0
2017-Jun-25 12:56N 56°09' E 014°44'0 0.0
2017-Jun-25 12:30N 56°09' E 014°44'3 5.7
2017-Jun-25 12:00N 56°07' E 014°47'4 7.8
2017-Jun-25 11:30N 56°05' E 014°52'4 7.6
2017-Jun-25 11:00N 56°01' E 014°55'5 8.5
2017-Jun-25 10:24N 55°56' E 014°54'4 8.8
2017-Jun-25 10:00N 55°53' E 014°52'4 8.8
2017-Jun-25 09:30N 55°48' E 014°50'5 8.8
2017-Jun-25 09:00N 55°44' E 014°48'4 8.8
2017-Jun-25 08:30N 55°40' E 014°46'4 8.9
2017-Jun-25 08:00N 55°36' E 014°44'4 8.9
2017-Jun-25 07:30N 55°31' E 014°42'4 8.9
2017-Jun-25 07:01N 55°27' E 014°40'4 8.2
2017-Jun-25 06:30N 55°23' E 014°37'5 9.2
2017-Jun-25 06:00N 55°20' E 014°32'5 9.2
2017-Jun-25 05:30N 55°16' E 014°27'5 9.3
2017-Jun-25 05:00N 55°13' E 014°22'5 9.8
2017-Jun-25 04:30N 55°11' E 014°13'510.2
2017-Jun-25 04:00N 55°11' E 014°04'510.1
2017-Jun-25 03:30N 55°10' E 013°56'510.0
2017-Jun-25 02:59N 55°11' E 013°47'5 9.9
2017-Jun-25 02:29N 55°12' E 013°38'1610.2
2017-Jun-25 00:54N 55°14' E 013°10'410.1
2017-Jun-25 00:30N 55°14' E 013°03'510.0
2017-Jun-25 00:00N 55°15' E 012°54'5 9.8
2017-Jun-24 23:30N 55°16' E 012°46'510.2
2017-Jun-24 23:01N 55°18' E 012°38'611.4
2017-Jun-24 22:30N 55°24' E 012°40'611.5
2017-Jun-24 22:00N 55°29' E 012°41'612.2
2017-Jun-24 21:30N 55°35' E 012°42'612.7
2017-Jun-24 21:00N 55°42' E 012°41'611.5
2017-Jun-24 20:30N 55°47' E 012°41'611.6
2017-Jun-24 20:00N 55°53' E 012°39'611.7
2017-Jun-24 19:30N 55°59' E 012°38'611.0
2017-Jun-24 19:00N 56°04' E 012°36'612.4
2017-Jun-24 18:30N 56°08' E 012°27'611.7
2017-Jun-24 18:00N 56°12' E 012°19'510.9
2017-Jun-24 17:30N 56°15' E 012°11'5611.3
2017-Jun-24 12:31N 57°08' E 011°37'411.0
2017-Jun-24 12:10N 57°11' E 011°34'211.2
2017-Jun-24 12:00N 57°13' E 011°33'611.2
2017-Jun-24 11:30N 57°18' E 011°30'511.0
2017-Jun-24 11:01N 57°24' E 011°26'510.7
2017-Jun-24 10:30N 57°28' E 011°22'511.0
2017-Jun-24 10:00N 57°32' E 011°14'611.6
2017-Jun-24 09:30N 57°36' E 011°06'612.0
2017-Jun-24 09:00N 57°40' E 010°58'612.1
2017-Jun-24 08:30N 57°44' E 010°50'611.5
2017-Jun-24 08:00N 57°47' E 010°40'612.0
2017-Jun-24 07:29N 57°46' E 010°29'612.1
2017-Jun-24 06:57N 57°44' E 010°17'25210.3
2017-Jun-23 06:29N 54°36' E 005°16'4510.7
2017-Jun-23 02:17N 53°57' E 004°38'120 9.9
2017-Jun-22 14:06N 52°09' E 003°09'3812.6
2017-Jun-22 11:04N 51°40' E 002°30'113.0
2017-Jun-22 10:59N 51°39' E 002°29'612.9
2017-Jun-22 10:30N 51°34' E 002°23'612.9
2017-Jun-22 10:00N 51°29' E 002°16'612.3
2017-Jun-22 09:30N 51°24' E 002°12'612.4
2017-Jun-22 09:00N 51°18' E 002°08'612.1
2017-Jun-22 08:30N 51°13' E 002°01'612.3
2017-Jun-22 08:00N 51°10' E 001°53'611.7
2017-Jun-22 07:30N 51°06' E 001°46'510.6
2017-Jun-22 07:00N 51°02' E 001°41'5 9.9
2017-Jun-22 06:30N 50°58' E 001°35'5 9.3
2017-Jun-22 06:00N 50°55' E 001°31'4 8.9
2017-Jun-22 05:30N 50°51' E 001°28'5 9.1
2017-Jun-22 05:00N 50°47' E 001°25'5 9.1
2017-Jun-22 04:30N 50°42' E 001°22'5 9.4
2017-Jun-22 04:00N 50°39' E 001°16'5 9.5
2017-Jun-22 03:30N 50°36' E 001°10'5 9.6
2017-Jun-22 03:00N 50°34' E 001°04'16 9.8
2017-Jun-22 01:21N 50°28' E 000°40'410.4
2017-Jun-22 01:00N 50°27' E 000°35'510.3
2017-Jun-22 00:29N 50°25' E 000°27'510.3
2017-Jun-22 00:00N 50°24' E 000°20'510.4
2017-Jun-21 23:30N 50°22' E 000°12'610.4
2017-Jun-21 22:57N 50°21' E 000°03'511.0
2017-Jun-21 22:30N 50°22' W 000°04'510.6
2017-Jun-21 22:00N 50°22' W 000°13'510.8
2017-Jun-21 21:30N 50°24' W 000°21'611.1
2017-Jun-21 20:59N 50°25' W 000°30'611.9
2017-Jun-21 20:30N 50°26' W 000°38'612.4
2017-Jun-21 20:00N 50°27' W 000°48'812.6
2017-Jun-21 19:22N 50°28' W 001°01'813.5
2017-Jun-21 18:47N 50°29' W 001°13'414.1
2017-Jun-21 18:30N 50°30' W 001°19'713.8
2017-Jun-21 18:00N 50°32' W 001°29'713.5
2017-Jun-21 17:30N 50°35' W 001°39'612.8
2017-Jun-21 17:00N 50°37' W 001°48'510.5
2017-Jun-21 16:30N 50°40' W 001°56'4 7.3
2017-Jun-21 16:00N 50°43' W 001°59'0 0.1
2017-Jun-21 15:30N 50°43' W 001°59'0 0.0
2017-Jun-21 15:00N 50°43' W 001°59'0 0.0
2017-Jun-21 14:30N 50°43' W 001°59'0 0.0
2017-Jun-21 13:24N 50°43' W 001°59'0 0.0
2017-Jun-21 12:42N 50°43' W 001°59'0 0.0
2017-Jun-21 12:24N 50°43' W 001°59'0 0.0
2017-Jun-21 12:00N 50°43' W 001°59'0 0.0
2017-Jun-21 11:30N 50°43' W 001°59'0 0.0
2017-Jun-21 11:00N 50°43' W 001°59'0 0.0
2017-Jun-21 10:30N 50°43' W 001°59'0 0.0
2017-Jun-21 10:00N 50°43' W 001°59'0 0.0
2017-Jun-21 09:30N 50°43' W 001°59'0 0.0
2017-Jun-21 09:00N 50°43' W 001°59'0 0.0
2017-Jun-21 08:30N 50°43' W 001°59'0 0.0
2017-Jun-21 08:00N 50°43' W 001°59'0 0.0
2017-Jun-21 07:24N 50°43' W 001°59'0 0.0
2017-Jun-21 07:00N 50°43' W 001°59'0 0.0
2017-Jun-21 06:30N 50°43' W 001°59'0 0.0
2017-Jun-21 06:00N 50°43' W 001°59'0 0.0
2017-Jun-21 05:30N 50°43' W 001°59'0 0.0
2017-Jun-21 05:00N 50°43' W 001°59'0 0.0
2017-Jun-21 04:30N 50°43' W 001°59'0 0.0
2017-Jun-21 04:00N 50°43' W 001°59'0 0.0
2017-Jun-21 03:24N 50°43' W 001°59'0 0.0
2017-Jun-21 03:00N 50°43' W 001°59'0 0.0
2017-Jun-21 02:30N 50°43' W 001°59'0 0.0
2017-Jun-21 02:00N 50°43' W 001°59'0 0.0
2017-Jun-21 01:30N 50°43' W 001°59'0 0.0
2017-Jun-21 01:00N 50°43' W 001°59'0 0.0
2017-Jun-21 00:30N 50°43' W 001°59'0 0.0
2017-Jun-21 00:00N 50°43' W 001°59'0 0.0
2017-Jun-20 23:30N 50°43' W 001°59'0 0.0
2017-Jun-20 22:47N 50°43' W 001°59'0 0.0
2017-Jun-20 21:23N 50°43' W 001°59'0 0.0
2017-Jun-20 20:59N 50°43' W 001°59'0 0.0
2017-Jun-20 20:29N 50°43' W 001°59'0 0.0
2017-Jun-20 12:59N 50°43' W 001°59'0 0.0
2017-Jun-20 12:23N 50°43' W 001°59'0 0.0
2017-Jun-20 11:47N 50°43' W 001°59'0 0.0
2017-Jun-20 11:05N 50°43' W 001°59'0 0.1
2017-Jun-20 10:59N 50°43' W 001°59'0 0.0
2017-Jun-20 10:29N 50°43' W 001°59'0 0.0
2017-Jun-20 09:59N 50°43' W 001°59'0 0.0
2017-Jun-20 09:29N 50°43' W 001°59'0 0.0
2017-Jun-20 08:59N 50°43' W 001°59'0 0.0
2017-Jun-20 08:29N 50°43' W 001°59'0 0.0
2017-Jun-20 07:59N 50°43' W 001°59'0 0.0
2017-Jun-20 07:29N 50°43' W 001°59'0 0.0
2017-Jun-20 06:59N 50°43' W 001°59'0 0.0
2017-Jun-20 06:26N 50°43' W 001°59'0 0.0
2017-Jun-20 05:59N 50°43' W 001°59'0 0.0
2017-Jun-20 05:23N 50°43' W 001°59'0 0.0
2017-Jun-20 04:59N 50°43' W 001°59'0 0.0
2017-Jun-20 04:29N 50°43' W 001°59'0 0.0
2017-Jun-20 03:59N 50°43' W 001°59'0 0.0
2017-Jun-20 03:23N 50°43' W 001°59'0 0.0
2017-Jun-20 02:59N 50°43' W 001°59'0 0.0
2017-Jun-20 02:29N 50°43' W 001°59'0 0.0
2017-Jun-20 01:53N 50°43' W 001°59'0 0.0
2017-Jun-20 01:29N 50°43' W 001°59'0 0.0
2017-Jun-20 00:48N 50°43' W 001°59'0 1.0
2017-Jun-20 00:30N 50°42' W 001°59'3 6.0
2017-Jun-20 00:00N 50°40' W 001°56'5 7.5
2017-Jun-19 23:19N 50°38' W 001°49'411.9
2017-Jun-19 23:00N 50°36' W 001°43'1112.1
2017-Jun-19 22:07N 50°32' W 001°28'612.6
2017-Jun-19 21:38N 50°30' W 001°19'313.2
2017-Jun-19 21:26N 50°30' W 001°15'613.0
2017-Jun-19 21:00N 50°30' W 001°06'612.6
2017-Jun-19 20:30N 50°31' W 000°56'612.5
2017-Jun-19 20:00N 50°31' W 000°46'611.9
2017-Jun-19 19:30N 50°31' W 000°37'510.8
2017-Jun-19 19:00N 50°31' W 000°28'510.3
2017-Jun-19 18:28N 50°31' W 000°20'510.1
2017-Jun-19 18:00N 50°32' W 000°12'5 9.9
2017-Jun-19 17:30N 50°32' W 000°04'5 9.4
2017-Jun-19 17:00N 50°33' E 000°03'5 9.2
2017-Jun-19 16:30N 50°34' E 000°10'5 9.2
2017-Jun-19 16:00N 50°36' E 000°17'5 9.2
2017-Jun-19 15:28N 50°37' E 000°24'5 9.8
2017-Jun-19 15:00N 50°38' E 000°31'1010.4
2017-Jun-19 14:00N 50°44' E 000°45'2012.0
2017-Jun-19 12:20N 50°56' E 001°11'412.1
2017-Jun-19 12:00N 50°58' E 001°15'612.0
2017-Jun-19 11:30N 51°02' E 001°23'611.4
2017-Jun-19 11:00N 51°06' E 001°30'510.6
2017-Jun-19 10:30N 51°09' E 001°36'5 9.8
2017-Jun-19 10:00N 51°12' E 001°42'5 9.3
2017-Jun-19 09:30N 51°16' E 001°47'5 9.3
2017-Jun-19 09:00N 51°20' E 001°51'5 9.1
2017-Jun-19 08:30N 51°24' E 001°54'5 9.1
2017-Jun-19 08:00N 51°27' E 001°59'5 9.3
2017-Jun-19 07:30N 51°31' E 002°04'5 9.7
2017-Jun-19 07:00N 51°34' E 002°09'510.0
2017-Jun-19 06:30N 51°38' E 002°14'510.2
2017-Jun-19 06:00N 51°42' E 002°20'510.7
2017-Jun-19 05:30N 51°46' E 002°25'611.2
2017-Jun-19 05:00N 51°50' E 002°31'5811.1
2017-Jun-18 23:48N 52°36' E 003°28'3 9.7
2017-Jun-18 23:29N 52°39' E 003°32'12 9.4
2017-Jun-18 22:12N 52°48' E 003°44'7 9.2
2017-Jun-18 21:30N 52°53' E 003°52'5 9.4
2017-Jun-18 20:55N 52°57' E 003°58'6 9.9
2017-Jun-18 20:19N 53°01' E 004°05'410.4
2017-Jun-18 19:53N 53°04' E 004°10'411.0
2017-Jun-18 19:30N 53°07' E 004°16'611.2
2017-Jun-18 18:58N 53°11' E 004°23'1011.5
2017-Jun-18 18:06N 53°20' E 004°31'311.7
2017-Jun-18 17:52N 53°22' E 004°33'52 9.6
2017-Jun-18 12:26N 53°44' E 005°53'6010.5
2017-Jun-18 06:45N 54°00' E 007°31'32 9.7
2017-Jun-18 03:25N 53°59' E 008°26'9 7.8
2017-Jun-18 02:17N 53°56' E 008°40'3 8.8
2017-Jun-18 02:00N 53°54' E 008°42'510.0
2017-Jun-18 01:30N 53°51' E 008°48'611.7
2017-Jun-18 01:00N 53°51' E 008°58'612.1
2017-Jun-18 00:30N 53°53' E 009°08'1 2.0
2017-Jun-18 00:00N 53°54' E 009°09'3 5.1
2017-Jun-17 23:31N 53°55' E 009°12'4 8.7
2017-Jun-17 23:00N 53°59' E 009°17'4 8.5
2017-Jun-17 22:31N 54°03' E 009°18'5 8.5
2017-Jun-17 21:58N 54°07' E 009°20'56 5.4
2017-Jun-17 11:41N 54°35' E 010°43'210.0
2017-Jun-17 11:30N 54°35' E 010°46'5 9.3
2017-Jun-17 11:00N 54°35' E 010°54'4 9.0
2017-Jun-17 10:30N 54°36' E 011°02'5 9.2
2017-Jun-17 10:00N 54°36' E 011°09'5 9.2
2017-Jun-17 09:30N 54°35' E 011°17'5 9.5
2017-Jun-17 09:00N 54°33' E 011°25'13 8.9
2017-Jun-17 07:32N 54°27' E 011°45'0 8.5
2017-Jun-17 07:30N 54°27' E 011°45'4 8.6
2017-Jun-17 07:00N 54°27' E 011°53'5 9.0
2017-Jun-17 06:30N 54°27' E 012°01'5 9.2
2017-Jun-17 06:00N 54°27' E 012°08'5 9.6
2017-Jun-17 05:30N 54°32' E 012°12'510.1
2017-Jun-17 05:00N 54°36' E 012°15'5 9.9
2017-Jun-17 04:30N 54°39' E 012°22'5 9.8
2017-Jun-17 04:00N 54°42' E 012°29'47 9.2
2017-Jun-16 22:54N 55°01' E 013°44'4 9.4
2017-Jun-16 22:30N 55°02' E 013°50'5 9.6
2017-Jun-16 22:00N 55°04' E 013°57'  
Track history (hours):
 
Tides and Currents Weather Stations Pressure Air Temp Water Temp Dewpoint Dewpoint Depression Visibility Wind Speed Wind Dir Waves Ship Positions

Forseti

Last reported at 2017-Jun-26 21:43 UTC. Time now 2017-Jun-27 06:54 UTC.
Position N 56°05' E 016°51'.

Length 85 m; draft 5.5 m.

Type: Cargo ship. MMSI: 304010297.

Date/timePositionNaut miles runAvg speedWind from/ knotsBaromVisibWave heightAir tempDewpointWater temp
2017-Jun-26 21:43N 56°05' E 016°51'210.1
2017-Jun-26 21:30N 56°04' E 016°49'5 9.9
2017-Jun-26 20:58N 56°01' E 016°41'5 9.9
2017-Jun-26 20:30N 55°60' E 016°33'510.0
2017-Jun-26 20:00N 55°58' E 016°24'510.0
2017-Jun-26 19:30N 55°57' E 016°16'510.0
2017-Jun-26 19:00N 55°55' E 016°07'510.2
2017-Jun-26 18:30N 55°55' E 015°58'510.0
2017-Jun-26 18:00N 55°55' E 015°49'5 9.8
2017-Jun-26 17:30N 55°55' E 015°41'510.0
2017-Jun-26 17:00N 55°57' E 015°32'5 9.8
2017-Jun-26 16:30N 55°59' E 015°24'510.0
2017-Jun-26 16:00N 56°01' E 015°16'5 9.9
2017-Jun-26 15:30N 56°02' E 015°08'510.0
2017-Jun-26 15:00N 56°04' E 014°59'510.1
2017-Jun-26 14:30N 56°06' E 014°51'5 5.0
2017-Jun-26 13:29N 56°09' E 014°44'0 0.0
2017-Jun-25 12:56N 56°09' E 014°44'0 0.0
2017-Jun-25 12:30N 56°09' E 014°44'3 5.7
2017-Jun-25 12:00N 56°07' E 014°47'4 7.8
2017-Jun-25 11:30N 56°05' E 014°52'4 7.6
2017-Jun-25 11:00N 56°01' E 014°55'5 8.5
2017-Jun-25 10:24N 55°56' E 014°54'4 8.8
2017-Jun-25 10:00N 55°53' E 014°52'4 8.8
2017-Jun-25 09:30N 55°48' E 014°50'5 8.8
2017-Jun-25 09:00N 55°44' E 014°48'4 8.8
2017-Jun-25 08:30N 55°40' E 014°46'4 8.9
2017-Jun-25 08:00N 55°36' E 014°44'4 8.9
2017-Jun-25 07:30N 55°31' E 014°42'4 8.9
2017-Jun-25 07:01N 55°27' E 014°40'4 8.2
2017-Jun-25 06:30N 55°23' E 014°37'5 9.2
2017-Jun-25 06:00N 55°20' E 014°32'5 9.2
2017-Jun-25 05:30N 55°16' E 014°27'5 9.3
2017-Jun-25 05:00N 55°13' E 014°22'5 9.8
2017-Jun-25 04:30N 55°11' E 014°13'510.2
2017-Jun-25 04:00N 55°11' E 014°04'510.1
2017-Jun-25 03:30N 55°10' E 013°56'510.0
2017-Jun-25 02:59N 55°11' E 013°47'5 9.9
2017-Jun-25 02:29N 55°12' E 013°38'1610.2
2017-Jun-25 00:54N 55°14' E 013°10'410.1
2017-Jun-25 00:30N 55°14' E 013°03'510.0
2017-Jun-25 00:00N 55°15' E 012°54'5 9.8
2017-Jun-24 23:30N 55°16' E 012°46'510.2
2017-Jun-24 23:01N 55°18' E 012°38'611.4
2017-Jun-24 22:30N 55°24' E 012°40'611.5
2017-Jun-24 22:00N 55°29' E 012°41'612.2
2017-Jun-24 21:30N 55°35' E 012°42'612.7
2017-Jun-24 21:00N 55°42' E 012°41'611.5
2017-Jun-24 20:30N 55°47' E 012°41'611.6
2017-Jun-24 20:00N 55°53' E 012°39'611.7
2017-Jun-24 19:30N 55°59' E 012°38'611.0
2017-Jun-24 19:00N 56°04' E 012°36'612.4
2017-Jun-24 18:30N 56°08' E 012°27'611.7
2017-Jun-24 18:00N 56°12' E 012°19'510.9
2017-Jun-24 17:30N 56°15' E 012°11'5611.3
2017-Jun-24 12:31N 57°08' E 011°37'411.0
2017-Jun-24 12:10N 57°11' E 011°34'211.2
2017-Jun-24 12:00N 57°13' E 011°33'611.2
2017-Jun-24 11:30N 57°18' E 011°30'511.0
2017-Jun-24 11:01N 57°24' E 011°26'510.7
2017-Jun-24 10:30N 57°28' E 011°22'511.0
2017-Jun-24 10:00N 57°32' E 011°14'611.6
2017-Jun-24 09:30N 57°36' E 011°06'612.0
2017-Jun-24 09:00N 57°40' E 010°58'612.1
2017-Jun-24 08:30N 57°44' E 010°50'611.5
2017-Jun-24 08:00N 57°47' E 010°40'612.0
2017-Jun-24 07:29N 57°46' E 010°29'612.1
2017-Jun-24 06:57N 57°44' E 010°17'25210.3
2017-Jun-23 06:29N 54°36' E 005°16'4510.7
2017-Jun-23 02:17N 53°57' E 004°38'120 9.9
2017-Jun-22 14:06N 52°09' E 003°09'3812.6
2017-Jun-22 11:04N 51°40' E 002°30'113.0
2017-Jun-22 10:59N 51°39' E 002°29'612.9
2017-Jun-22 10:30N 51°34' E 002°23'612.9
2017-Jun-22 10:00N 51°29' E 002°16'612.3
2017-Jun-22 09:30N 51°24' E 002°12'612.4
2017-Jun-22 09:00N 51°18' E 002°08'612.1
2017-Jun-22 08:30N 51°13' E 002°01'612.3
2017-Jun-22 08:00N 51°10' E 001°53'611.7
2017-Jun-22 07:30N 51°06' E 001°46'510.6
2017-Jun-22 07:00N 51°02' E 001°41'5 9.9
2017-Jun-22 06:30N 50°58' E 001°35'5 9.3
2017-Jun-22 06:00N 50°55' E 001°31'4 8.9
2017-Jun-22 05:30N 50°51' E 001°28'5 9.1
2017-Jun-22 05:00N 50°47' E 001°25'5 9.1
2017-Jun-22 04:30N 50°42' E 001°22'5 9.4
2017-Jun-22 04:00N 50°39' E 001°16'5 9.5
2017-Jun-22 03:30N 50°36' E 001°10'5 9.6
2017-Jun-22 03:00N 50°34' E 001°04'16 9.8
2017-Jun-22 01:21N 50°28' E 000°40'410.4
2017-Jun-22 01:00N 50°27' E 000°35'510.3
2017-Jun-22 00:29N 50°25' E 000°27'510.3
2017-Jun-22 00:00N 50°24' E 000°20'510.4
2017-Jun-21 23:30N 50°22' E 000°12'610.4
2017-Jun-21 22:57N 50°21' E 000°03'511.0
2017-Jun-21 22:30N 50°22' W 000°04'510.6
2017-Jun-21 22:00N 50°22' W 000°13'510.8
2017-Jun-21 21:30N 50°24' W 000°21'611.1
2017-Jun-21 20:59N 50°25' W 000°30'611.9
2017-Jun-21 20:30N 50°26' W 000°38'612.4
2017-Jun-21 20:00N 50°27' W 000°48'812.6
2017-Jun-21 19:22N 50°28' W 001°01'813.5
2017-Jun-21 18:47N 50°29' W 001°13'414.1
2017-Jun-21 18:30N 50°30' W 001°19'713.8
2017-Jun-21 18:00N 50°32' W 001°29'713.5
2017-Jun-21 17:30N 50°35' W 001°39'612.8
2017-Jun-21 17:00N 50°37' W 001°48'510.5
2017-Jun-21 16:30N 50°40' W 001°56'4 7.3
2017-Jun-21 16:00N 50°43' W 001°59'0 0.1
2017-Jun-21 15:30N 50°43' W 001°59'0 0.0
2017-Jun-21 15:00N 50°43' W 001°59'0 0.0
2017-Jun-21 14:30N 50°43' W 001°59'0 0.0
2017-Jun-21 13:24N 50°43' W 001°59'0 0.0
2017-Jun-21 12:42N 50°43' W 001°59'0 0.0
2017-Jun-21 12:24N 50°43' W 001°59'0 0.0
2017-Jun-21 12:00N 50°43' W 001°59'0 0.0
2017-Jun-21 11:30N 50°43' W 001°59'0 0.0
2017-Jun-21 11:00N 50°43' W 001°59'0 0.0
2017-Jun-21 10:30N 50°43' W 001°59'0 0.0
2017-Jun-21 10:00N 50°43' W 001°59'0 0.0
2017-Jun-21 09:30N 50°43' W 001°59'0 0.0
2017-Jun-21 09:00N 50°43' W 001°59'0 0.0
2017-Jun-21 08:30N 50°43' W 001°59'0 0.0
2017-Jun-21 08:00N 50°43' W 001°59'0 0.0
2017-Jun-21 07:24N 50°43' W 001°59'0 0.0
2017-Jun-21 07:00N 50°43' W 001°59'0 0.0
2017-Jun-21 06:30N 50°43' W 001°59'0 0.0
2017-Jun-21 06:00N 50°43' W 001°59'0 0.0
2017-Jun-21 05:30N 50°43' W 001°59'0 0.0
2017-Jun-21 05:00N 50°43' W 001°59'0 0.0
2017-Jun-21 04:30N 50°43' W 001°59'0 0.0
2017-Jun-21 04:00N 50°43' W 001°59'0 0.0
2017-Jun-21 03:24N 50°43' W 001°59'0 0.0
2017-Jun-21 03:00N 50°43' W 001°59'0 0.0
2017-Jun-21 02:30N 50°43' W 001°59'0 0.0
2017-Jun-21 02:00N 50°43' W 001°59'0 0.0
2017-Jun-21 01:30N 50°43' W 001°59'0 0.0
2017-Jun-21 01:00N 50°43' W 001°59'0 0.0
2017-Jun-21 00:30N 50°43' W 001°59'0 0.0
2017-Jun-21 00:00N 50°43' W 001°59'0 0.0
2017-Jun-20 23:30N 50°43' W 001°59'0 0.0
2017-Jun-20 22:47N 50°43' W 001°59'0 0.0
2017-Jun-20 21:23N 50°43' W 001°59'0 0.0
2017-Jun-20 20:59N 50°43' W 001°59'0 0.0
2017-Jun-20 20:29N 50°43' W 001°59'0 0.0
2017-Jun-20 12:59N 50°43' W 001°59'0 0.0
2017-Jun-20 12:23N 50°43' W 001°59'0 0.0
2017-Jun-20 11:47N 50°43' W 001°59'0 0.0
2017-Jun-20 11:05N 50°43' W 001°59'0 0.1
2017-Jun-20 10:59N 50°43' W 001°59'0 0.0
2017-Jun-20 10:29N 50°43' W 001°59'0 0.0
2017-Jun-20 09:59N 50°43' W 001°59'0 0.0
2017-Jun-20 09:29N 50°43' W 001°59'0 0.0
2017-Jun-20 08:59N 50°43' W 001°59'0 0.0
2017-Jun-20 08:29N 50°43' W 001°59'0 0.0
2017-Jun-20 07:59N 50°43' W 001°59'0 0.0
2017-Jun-20 07:29N 50°43' W 001°59'0 0.0
2017-Jun-20 06:59N 50°43' W 001°59'0 0.0
2017-Jun-20 06:26N 50°43' W 001°59'0 0.0
2017-Jun-20 05:59N 50°43' W 001°59'0 0.0
2017-Jun-20 05:23N 50°43' W 001°59'0 0.0
2017-Jun-20 04:59N 50°43' W 001°59'0 0.0
2017-Jun-20 04:29N 50°43' W 001°59'0 0.0
2017-Jun-20 03:59N 50°43' W 001°59'0 0.0
2017-Jun-20 03:23N 50°43' W 001°59'0 0.0
2017-Jun-20 02:59N 50°43' W 001°59'0 0.0
2017-Jun-20 02:29N 50°43' W 001°59'0 0.0
2017-Jun-20 01:53N 50°43' W 001°59'0 0.0
2017-Jun-20 01:29N 50°43' W 001°59'0 0.0
2017-Jun-20 00:48N 50°43' W 001°59'0 1.0
2017-Jun-20 00:30N 50°42' W 001°59'3 6.0
2017-Jun-20 00:00N 50°40' W 001°56'5 7.5
2017-Jun-19 23:19N 50°38' W 001°49'411.9
2017-Jun-19 23:00N 50°36' W 001°43'1112.1
2017-Jun-19 22:07N 50°32' W 001°28'612.6
2017-Jun-19 21:38N 50°30' W 001°19'313.2
2017-Jun-19 21:26N 50°30' W 001°15'613.0
2017-Jun-19 21:00N 50°30' W 001°06'612.6
2017-Jun-19 20:30N 50°31' W 000°56'612.5
2017-Jun-19 20:00N 50°31' W 000°46'611.9
2017-Jun-19 19:30N 50°31' W 000°37'510.8
2017-Jun-19 19:00N 50°31' W 000°28'510.3
2017-Jun-19 18:28N 50°31' W 000°20'510.1
2017-Jun-19 18:00N 50°32' W 000°12'5 9.9
2017-Jun-19 17:30N 50°32' W 000°04'5 9.4
2017-Jun-19 17:00N 50°33' E 000°03'5 9.2
2017-Jun-19 16:30N 50°34' E 000°10'5 9.2
2017-Jun-19 16:00N 50°36' E 000°17'5 9.2
2017-Jun-19 15:28N 50°37' E 000°24'5 9.8
2017-Jun-19 15:00N 50°38' E 000°31'1010.4
2017-Jun-19 14:00N 50°44' E 000°45'2012.0
2017-Jun-19 12:20N 50°56' E 001°11'412.1
2017-Jun-19 12:00N 50°58' E 001°15'612.0
2017-Jun-19 11:30N 51°02' E 001°23'611.4
2017-Jun-19 11:00N 51°06' E 001°30'510.6
2017-Jun-19 10:30N 51°09' E 001°36'5 9.8
2017-Jun-19 10:00N 51°12' E 001°42'5 9.3
2017-Jun-19 09:30N 51°16' E 001°47'5 9.3
2017-Jun-19 09:00N 51°20' E 001°51'5 9.1
2017-Jun-19 08:30N 51°24' E 001°54'5 9.1
2017-Jun-19 08:00N 51°27' E 001°59'5 9.3
2017-Jun-19 07:30N 51°31' E 002°04'5 9.7
2017-Jun-19 07:00N 51°34' E 002°09'510.0
2017-Jun-19 06:30N 51°38' E 002°14'510.2
2017-Jun-19 06:00N 51°42' E 002°20'510.7
2017-Jun-19 05:30N 51°46' E 002°25'611.2
2017-Jun-19 05:00N 51°50' E 002°31'5811.1
2017-Jun-18 23:48N 52°36' E 003°28'3 9.7
2017-Jun-18 23:29N 52°39' E 003°32'12 9.4
2017-Jun-18 22:12N 52°48' E 003°44'7 9.2
2017-Jun-18 21:30N 52°53' E 003°52'5 9.4
2017-Jun-18 20:55N 52°57' E 003°58'6 9.9
2017-Jun-18 20:19N 53°01' E 004°05'410.4
2017-Jun-18 19:53N 53°04' E 004°10'411.0
2017-Jun-18 19:30N 53°07' E 004°16'611.2
2017-Jun-18 18:58N 53°11' E 004°23'1011.5
2017-Jun-18 18:06N 53°20' E 004°31'311.7
2017-Jun-18 17:52N 53°22' E 004°33'52 9.6
2017-Jun-18 12:26N 53°44' E 005°53'6010.5
2017-Jun-18 06:45N 54°00' E 007°31'32 9.7
2017-Jun-18 03:25N 53°59' E 008°26'9 7.8
2017-Jun-18 02:17N 53°56' E 008°40'3 8.8
2017-Jun-18 02:00N 53°54' E 008°42'510.0
2017-Jun-18 01:30N 53°51' E 008°48'611.7
2017-Jun-18 01:00N 53°51' E 008°58'612.1
2017-Jun-18 00:30N 53°53' E 009°08'1 2.0
2017-Jun-18 00:00N 53°54' E 009°09'3 5.1
2017-Jun-17 23:31N 53°55' E 009°12'4 8.7
2017-Jun-17 23:00N 53°59' E 009°17'4 8.5
2017-Jun-17 22:31N 54°03' E 009°18'5 8.5
2017-Jun-17 21:58N 54°07' E 009°20'56 5.4
2017-Jun-17 11:41N 54°35' E 010°43'210.0
2017-Jun-17 11:30N 54°35' E 010°46'5 9.3
2017-Jun-17 11:00N 54°35' E 010°54'4 9.0
2017-Jun-17 10:30N 54°36' E 011°02'5 9.2
2017-Jun-17 10:00N 54°36' E 011°09'5 9.2
2017-Jun-17 09:30N 54°35' E 011°17'5 9.5
2017-Jun-17 09:00N 54°33' E 011°25'13 8.9
2017-Jun-17 07:32N 54°27' E 011°45'0 8.5
2017-Jun-17 07:30N 54°27' E 011°45'4 8.6
2017-Jun-17 07:00N 54°27' E 011°53'5 9.0
2017-Jun-17 06:30N 54°27' E 012°01'5 9.2
2017-Jun-17 06:00N 54°27' E 012°08'5 9.6
2017-Jun-17 05:30N 54°32' E 012°12'510.1
2017-Jun-17 05:00N 54°36' E 012°15'5 9.9
2017-Jun-17 04:30N 54°39' E 012°22'5 9.8
2017-Jun-17 04:00N 54°42' E 012°29'47 9.2
2017-Jun-16 22:54N 55°01' E 013°44'4 9.4
2017-Jun-16 22:30N 55°02' E 013°50'5 9.6
2017-Jun-16 22:00N 55°04' E 013°57'  

Dump ship's entire track history